Active alerts


No alerts


weather webcam more information weather webcam


Thunder radar more information blitzortung!


Rain radar more information rain snow radar


Visit our other weather sites:

Template documentation
and downloads

And another site


Nearby METAR Reports

   
EBBR - Brussels International Airport, Belgium
Distance from station: W 9 mi
Updated: Dec 1 2022 11:20 am
Mostly Cloudy  
Mostly Cloudy  
   Wind: North 5.8 mph
Wind: North 5.8 mph
Temperature: 41°F
Wind Chill: 37.4°F
Dew Point: 37.4°F
Humidity: 87%
Barometer: 30.33 inHg
Clouds: Mostly Cloudy
Visibility: More than 6 mi
Cloud details: Mostly Cloudy 2500 ft
EBBR 011720Z 01005KT 9999 BKN025 05/03 Q1027 NOSIG
EBBE - Beauvechain (Bevekom), Belgium
Distance from station: SSE 10 mi
Updated: Dec 1 2022 11:25 am
Overcast  
Overcast  
   Wind: NNE 8.1 mph
Wind: NNE 8.1 mph
Temperature: 41°F
Wind Chill: 35.6°F
Dew Point: 37.4°F
Humidity: 87%
Barometer: 30.3 inHg
Clouds: Overcast
Visibility: 4 mi
Cloud details: Partly Cloudy 1600 ft,
Mostly Cloudy 1900 ft,
Overcast 2300 ft
EBBE 011725Z AUTO 02007KT 6000 SCT016/// BKN019/// OVC023/// 05/03 Q1026 WHT
EBDT - Schaffen, Belgium
Distance from station: ENE 18 mi
Updated: Dec 1 2022 11:25 am
Overcast  
Overcast  
   Wind: NNE 9.2 mph
Wind: NNE 9.2 mph
Temperature: 42.8°F
Wind Chill: 37.4°F
Dew Point: 37.4°F
Humidity: 81%
Barometer: 30.3 inHg
Clouds: Overcast
Visibility: 6 mi
Cloud details: Overcast 2300 ft
EBDT 011725Z AUTO 03008KT 9000 OVC023/// 06/03 Q1026 WHT
EBAW - Antwerp/Deurne, Belgium
Distance from station: NNW 23 mi
Updated: Dec 1 2022 11:20 am
Mostly Cloudy  
Mostly Cloudy  
   Wind: North 5.8 mph
Wind: North 5.8 mph
Temperature: 42.8°F
Wind Chill: 39.2°F
Dew Point: 35.6°F
Humidity: 76%
Barometer: 30.33 inHg
Clouds: Mostly Cloudy
Visibility: More than 6 mi
Cloud details: Mostly Cloudy 2900 ft
EBAW 011720Z 36005KT 330V030 9999 BKN029 06/02 Q1027 NOSIG
EBCI - Charleroi/Gosselies, Belgium
Distance from station: SSW 32 mi
Updated: Dec 1 2022 11:20 am
Mostly Cloudy  
Mostly Cloudy  
   Wind: North 8.1 mph
Wind: North 8.1 mph
Temperature: 39.2°F
Wind Chill: 33.8°F
Dew Point: 37.4°F
Humidity: 93%
Barometer: 30.3 inHg
Clouds: Mostly Cloudy
Visibility: 5 mi
Cloud details: Few Clouds 800 ft,
Mostly Cloudy 1300 ft
EBCI 011720Z 01007KT 330V030 8000 FEW008 BKN013 04/03 Q1026 TEMPO BKN008
EBLG - Bierset/Liege, Belgium
Distance from station: ESE 38 mi
Updated: Dec 1 2022 11:20 am
Mist, Mostly Cloudy  
Mist, Mostly Cloudy  
   Wind: NE 9.2 mph
Wind: NE 9.2 mph
Temperature: 39.2°F
Wind Chill: 33.8°F
Dew Point: 37.4°F
Humidity: 93%
Barometer: 30.3 inHg
Clouds: Mostly Cloudy
Visibility: 3 mi
Cloud details: Few Clouds 800 ft,
Mostly Cloudy 1200 ft
EBLG 011720Z 04008KT 4500 BR FEW008 BKN012 04/03 Q1026 TEMPO BKN008

Script developed by  Saratoga-weather.org Adapted for the template by  Weerstation Leuven

You find our weather info also at:

Weather Underground

Midwestern Weather Network

Citizen Weather Observer Program (CWOP)

HAMweather, WeatherForYou, PWS Weather

Equipment we use:

Weather-station
Davis VP2

Weather-program
Cumulus

Davis VP2

Cumulus